sensor_id;sensor_type;location;lat;lon;timestamp;pressure;altitude;pressure_sealevel;temperature;humidity
49611;BME280;35515;48.766;9.176;2023-07-31T00:01:37;98395.91;;;17.38;71.48
49611;BME280;35515;48.766;9.176;2023-07-31T00:04:04;98396.00;;;17.27;71.97
49611;BME280;35515;48.766;9.176;2023-07-31T00:06:30;98397.75;;;17.16;72.90
49611;BME280;35515;48.766;9.176;2023-07-31T00:08:57;98391.13;;;17.29;72.23
49611;BME280;35515;48.766;9.176;2023-07-31T00:11:25;98388.56;;;17.05;73.26
49611;BME280;35515;48.766;9.176;2023-07-31T00:13:52;98383.25;;;17.15;72.80
49611;BME280;35515;48.766;9.176;2023-07-31T00:16:19;98388.84;;;17.26;72.64
49611;BME280;35515;48.766;9.176;2023-07-31T00:18:46;98394.84;;;17.23;72.67
49611;BME280;35515;48.766;9.176;2023-07-31T00:21:12;98394.19;;;17.15;73.37
49611;BME280;35515;48.766;9.176;2023-07-31T00:23:39;98381.59;;;17.14;73.70
49611;BME280;35515;48.766;9.176;2023-07-31T00:26:05;98395.09;;;17.04;74.15
49611;BME280;35515;48.766;9.176;2023-07-31T00:28:33;98393.97;;;17.00;74.38
49611;BME280;35515;48.766;9.176;2023-07-31T00:30:59;98383.41;;;17.09;74.43
49611;BME280;35515;48.766;9.176;2023-07-31T00:33:27;98380.59;;;17.03;74.56
49611;BME280;35515;48.766;9.176;2023-07-31T00:35:53;98380.59;;;17.03;74.85
49611;BME280;35515;48.766;9.176;2023-07-31T00:38:20;98379.41;;;17.16;74.36
49611;BME280;35515;48.766;9.176;2023-07-31T00:40:46;98378.59;;;17.16;73.44
49611;BME280;35515;48.766;9.176;2023-07-31T00:43:13;98376.75;;;17.21;73.39
49611;BME280;35515;48.766;9.176;2023-07-31T00:45:41;98373.50;;;17.25;72.76
49611;BME280;35515;48.766;9.176;2023-07-31T00:48:07;98370.75;;;17.25;72.48
49611;BME280;35515;48.766;9.176;2023-07-31T00:50:34;98371.94;;;17.29;72.12
49611;BME280;35515;48.766;9.176;2023-07-31T00:53:01;98370.56;;;17.48;70.63
49611;BME280;35515;48.766;9.176;2023-07-31T00:55:28;98368.78;;;17.37;70.88
49611;BME280;35515;48.766;9.176;2023-07-31T00:57:55;98361.19;;;17.44;69.90
49611;BME280;35515;48.766;9.176;2023-07-31T01:00:22;98363.94;;;17.44;69.22
49611;BME280;35515;48.766;9.176;2023-07-31T01:02:51;98373.56;;;17.30;70.28
49611;BME280;35515;48.766;9.176;2023-07-31T01:05:19;98381.53;;;17.31;70.95
49611;BME280;35515;48.766;9.176;2023-07-31T01:07:52;98376.91;;;17.32;71.24
49611;BME280;35515;48.766;9.176;2023-07-31T01:10:22;98380.38;;;17.27;71.90
49611;BME280;35515;48.766;9.176;2023-07-31T01:12:50;98376.75;;;17.21;72.28
49611;BME280;35515;48.766;9.176;2023-07-31T01:15:17;98372.44;;;17.09;73.39
49611;BME280;35515;48.766;9.176;2023-07-31T01:17:44;98379.28;;;17.06;73.31
49611;BME280;35515;48.766;9.176;2023-07-31T01:20:14;98374.78;;;17.00;73.72
49611;BME280;35515;48.766;9.176;2023-07-31T01:23:08;98369.16;;;16.90;74.77
49611;BME280;35515;48.766;9.176;2023-07-31T01:25:50;98357.31;;;17.01;74.23
49611;BME280;35515;48.766;9.176;2023-07-31T01:28:20;98370.41;;;16.99;74.53
49611;BME280;35515;48.766;9.176;2023-07-31T01:30:48;98363.25;;;16.98;74.48
49611;BME280;35515;48.766;9.176;2023-07-31T01:33:16;98360.13;;;17.06;73.99
49611;BME280;35515;48.766;9.176;2023-07-31T01:35:44;98361.94;;;16.83;75.69
49611;BME280;35515;48.766;9.176;2023-07-31T01:38:11;98357.38;;;16.72;76.45
49611;BME280;35515;48.766;9.176;2023-07-31T01:40:41;98353.56;;;16.73;76.30
49611;BME280;35515;48.766;9.176;2023-07-31T01:43:09;98351.97;;;16.77;75.98
49611;BME280;35515;48.766;9.176;2023-07-31T01:45:35;98354.38;;;16.74;76.57
49611;BME280;35515;48.766;9.176;2023-07-31T01:48:02;98348.09;;;16.73;76.38
49611;BME280;35515;48.766;9.176;2023-07-31T01:50:28;98348.41;;;16.60;77.40
49611;BME280;35515;48.766;9.176;2023-07-31T01:52:55;98352.88;;;16.66;76.90
49611;BME280;35515;48.766;9.176;2023-07-31T01:55:21;98349.06;;;16.67;77.29
49611;BME280;35515;48.766;9.176;2023-07-31T01:57:48;98344.88;;;16.93;79.96
49611;BME280;35515;48.766;9.176;2023-07-31T02:00:16;98345.56;;;16.88;77.38
49611;BME280;35515;48.766;9.176;2023-07-31T02:02:42;98333.34;;;16.91;77.24
49611;BME280;35515;48.766;9.176;2023-07-31T02:05:09;98337.63;;;16.87;76.59
49611;BME280;35515;48.766;9.176;2023-07-31T02:07:35;98340.09;;;16.88;76.41
49611;BME280;35515;48.766;9.176;2023-07-31T02:10:02;98338.22;;;16.89;75.81
49611;BME280;35515;48.766;9.176;2023-07-31T02:12:29;98336.22;;;16.84;76.29
49611;BME280;35515;48.766;9.176;2023-07-31T02:14:57;98326.59;;;16.82;76.35
49611;BME280;35515;48.766;9.176;2023-07-31T02:17:25;98321.47;;;16.85;76.59
49611;BME280;35515;48.766;9.176;2023-07-31T02:19:51;98317.06;;;16.84;77.12
49611;BME280;35515;48.766;9.176;2023-07-31T02:22:18;98317.41;;;16.88;76.21
49611;BME280;35515;48.766;9.176;2023-07-31T02:24:45;98306.63;;;16.81;76.35
49611;BME280;35515;48.766;9.176;2023-07-31T02:27:11;98312.44;;;16.85;76.25
49611;BME280;35515;48.766;9.176;2023-07-31T02:29:38;98302.97;;;16.93;77.51
49611;BME280;35515;48.766;9.176;2023-07-31T02:32:05;98307.97;;;16.96;75.65
49611;BME280;35515;48.766;9.176;2023-07-31T02:34:33;98309.31;;;16.93;75.49
49611;BME280;35515;48.766;9.176;2023-07-31T02:36:59;98302.66;;;16.89;75.61
49611;BME280;35515;48.766;9.176;2023-07-31T02:39:26;98302.16;;;16.92;75.77
49611;BME280;35515;48.766;9.176;2023-07-31T02:41:52;98301.16;;;16.81;76.48
49611;BME280;35515;48.766;9.176;2023-07-31T02:44:19;98296.19;;;16.78;76.24
49611;BME280;35515;48.766;9.176;2023-07-31T02:46:46;98301.16;;;16.81;76.09
49611;BME280;35515;48.766;9.176;2023-07-31T02:49:12;98294.84;;;16.98;75.44
49611;BME280;35515;48.766;9.176;2023-07-31T02:51:40;98294.38;;;17.01;74.31
49611;BME280;35515;48.766;9.176;2023-07-31T02:54:07;98289.28;;;17.10;73.57
49611;BME280;35515;48.766;9.176;2023-07-31T02:56:33;98286.78;;;17.08;73.35
49611;BME280;35515;48.766;9.176;2023-07-31T02:59:00;98282.31;;;17.02;74.15
49611;BME280;35515;48.766;9.176;2023-07-31T03:01:26;98276.28;;;17.00;74.13
49611;BME280;35515;48.766;9.176;2023-07-31T03:03:53;98265.16;;;17.07;72.21
49611;BME280;35515;48.766;9.176;2023-07-31T03:06:19;98275.84;;;17.08;72.83
49611;BME280;35515;48.766;9.176;2023-07-31T03:08:47;98284.56;;;17.05;73.24
49611;BME280;35515;48.766;9.176;2023-07-31T03:11:14;98282.91;;;17.04;72.77
49611;BME280;35515;48.766;9.176;2023-07-31T03:13:40;98286.53;;;17.10;72.91
49611;BME280;35515;48.766;9.176;2023-07-31T03:16:07;98281.25;;;17.03;72.40
49611;BME280;35515;48.766;9.176;2023-07-31T03:18:34;98282.75;;;16.94;73.39
49611;BME280;35515;48.766;9.176;2023-07-31T03:21:00;98287.22;;;17.00;73.02
49611;BME280;35515;48.766;9.176;2023-07-31T03:23:27;98288.81;;;16.96;73.76
49611;BME280;35515;48.766;9.176;2023-07-31T03:25:59;98293.22;;;16.97;74.20
49611;BME280;35515;48.766;9.176;2023-07-31T03:28:26;98294.44;;;16.89;74.47
49611;BME280;35515;48.766;9.176;2023-07-31T03:30:53;98284.41;;;16.78;75.16
49611;BME280;35515;48.766;9.176;2023-07-31T03:33:19;98292.34;;;16.79;75.59
49611;BME280;35515;48.766;9.176;2023-07-31T03:35:46;98287.56;;;16.69;75.83
49611;BME280;35515;48.766;9.176;2023-07-31T03:38:13;98286.34;;;16.60;76.56
49611;BME280;35515;48.766;9.176;2023-07-31T03:40:39;98289.41;;;16.64;76.82
49611;BME280;35515;48.766;9.176;2023-07-31T03:43:07;98293.38;;;16.73;75.69
49611;BME280;35515;48.766;9.176;2023-07-31T03:45:34;98293.38;;;16.73;75.54
49611;BME280;35515;48.766;9.176;2023-07-31T03:48:00;98289.31;;;16.59;76.59
49611;BME280;35515;48.766;9.176;2023-07-31T03:50:27;98294.78;;;16.59;76.28
49611;BME280;35515;48.766;9.176;2023-07-31T03:52:54;98294.78;;;16.59;76.26
49611;BME280;35515;48.766;9.176;2023-07-31T03:55:20;98303.41;;;16.50;76.91
49611;BME280;35515;48.766;9.176;2023-07-31T03:57:47;98300.19;;;16.53;76.55
49611;BME280;35515;48.766;9.176;2023-07-31T04:00:16;98292.06;;;16.59;76.65
49611;BME280;35515;48.766;9.176;2023-07-31T04:02:42;98294.16;;;16.51;76.77
49611;BME280;35515;48.766;9.176;2023-07-31T04:05:09;98296.38;;;16.54;77.03
49611;BME280;35515;48.766;9.176;2023-07-31T04:07:36;98299.91;;;16.55;77.27
49611;BME280;35515;48.766;9.176;2023-07-31T04:10:03;98297.19;;;16.55;77.19
49611;BME280;35515;48.766;9.176;2023-07-31T04:12:30;98289.75;;;16.50;77.76
49611;BME280;35515;48.766;9.176;2023-07-31T04:14:56;98288.25;;;16.60;76.48
49611;BME280;35515;48.766;9.176;2023-07-31T04:17:24;98286.09;;;16.62;77.21
49611;BME280;35515;48.766;9.176;2023-07-31T04:19:50;98284.28;;;16.50;78.17
49611;BME280;35515;48.766;9.176;2023-07-31T04:22:17;98280.13;;;16.65;78.88
49611;BME280;35515;48.766;9.176;2023-07-31T04:24:43;98278.47;;;16.64;78.32
49611;BME280;35515;48.766;9.176;2023-07-31T04:27:10;98281.53;;;16.67;78.39
49611;BME280;35515;48.766;9.176;2023-07-31T04:29:36;98278.38;;;16.76;78.54
49611;BME280;35515;48.766;9.176;2023-07-31T04:32:05;98272.50;;;16.67;77.62
49611;BME280;35515;48.766;9.176;2023-07-31T04:34:33;98277.53;;;16.75;78.22
49611;BME280;35515;48.766;9.176;2023-07-31T04:36:59;98266.66;;;16.80;78.20
49611;BME280;35515;48.766;9.176;2023-07-31T04:39:26;98278.13;;;16.77;78.16
49611;BME280;35515;48.766;9.176;2023-07-31T04:41:52;98283.84;;;16.76;78.77
49611;BME280;35515;48.766;9.176;2023-07-31T04:44:19;98281.25;;;16.86;77.41
49611;BME280;35515;48.766;9.176;2023-07-31T04:46:45;98285.00;;;16.97;77.16
49611;BME280;35515;48.766;9.176;2023-07-31T04:49:12;98282.38;;;17.07;74.68
49611;BME280;35515;48.766;9.176;2023-07-31T04:51:40;98282.03;;;17.20;72.81
49611;BME280;35515;48.766;9.176;2023-07-31T04:54:06;98273.94;;;17.31;72.07
49611;BME280;35515;48.766;9.176;2023-07-31T04:56:33;98269.63;;;17.35;71.37
49611;BME280;35515;48.766;9.176;2023-07-31T04:58:59;98275.78;;;17.47;71.43
49611;BME280;35515;48.766;9.176;2023-07-31T05:01:26;98274.22;;;17.51;70.60
49611;BME280;35515;48.766;9.176;2023-07-31T05:03:52;98280.25;;;17.53;70.64
49611;BME280;35515;48.766;9.176;2023-07-31T05:06:19;98277.81;;;17.57;71.06
49611;BME280;35515;48.766;9.176;2023-07-31T05:08:47;98271.75;;;17.55;70.08
49611;BME280;35515;48.766;9.176;2023-07-31T05:11:13;98272.63;;;17.55;69.49
49611;BME280;35515;48.766;9.176;2023-07-31T05:13:40;98277.50;;;17.53;70.92
49611;BME280;35515;48.766;9.176;2023-07-31T05:16:06;98269.34;;;17.59;70.66
49611;BME280;35515;48.766;9.176;2023-07-31T05:18:33;98263.34;;;17.62;69.98
49611;BME280;35515;48.766;9.176;2023-07-31T05:20:59;98265.13;;;17.73;69.30
49611;BME280;35515;48.766;9.176;2023-07-31T05:23:26;98262.88;;;17.70;67.87
49611;BME280;35515;48.766;9.176;2023-07-31T05:25:54;98272.75;;;17.71;68.43
49611;BME280;35515;48.766;9.176;2023-07-31T05:28:21;98269.00;;;17.77;69.28
49611;BME280;35515;48.766;9.176;2023-07-31T05:30:47;98274.94;;;17.69;68.56
49611;BME280;35515;48.766;9.176;2023-07-31T05:33:14;98279.50;;;17.58;68.63
49611;BME280;35515;48.766;9.176;2023-07-31T05:35:40;98269.41;;;17.64;68.34
49611;BME280;35515;48.766;9.176;2023-07-31T05:38:07;98273.63;;;17.49;69.56
49611;BME280;35515;48.766;9.176;2023-07-31T05:40:33;98273.38;;;17.51;69.64
49611;BME280;35515;48.766;9.176;2023-07-31T05:43:01;98271.16;;;17.48;69.99
49611;BME280;35515;48.766;9.176;2023-07-31T05:45:28;98275.63;;;17.54;69.54
49611;BME280;35515;48.766;9.176;2023-07-31T05:47:54;98272.03;;;17.53;70.04
49611;BME280;35515;48.766;9.176;2023-07-31T05:50:21;98273.22;;;17.63;68.39
49611;BME280;35515;48.766;9.176;2023-07-31T05:52:48;98269.47;;;17.69;68.17
49611;BME280;35515;48.766;9.176;2023-07-31T05:55:14;98269.22;;;17.70;69.33
49611;BME280;35515;48.766;9.176;2023-07-31T05:57:41;98263.94;;;17.64;68.76
49611;BME280;35515;48.766;9.176;2023-07-31T06:00:11;98256.91;;;17.73;69.23
49611;BME280;35515;48.766;9.176;2023-07-31T06:02:38;98257.22;;;17.77;67.58
49611;BME280;35515;48.766;9.176;2023-07-31T06:05:05;98268.69;;;17.74;68.80
49611;BME280;35515;48.766;9.176;2023-07-31T06:07:32;98264.88;;;17.75;68.63
49611;BME280;35515;48.766;9.176;2023-07-31T06:09:58;98263.22;;;17.74;69.33
49611;BME280;35515;48.766;9.176;2023-07-31T06:12:28;98264.34;;;17.78;69.80
49611;BME280;35515;48.766;9.176;2023-07-31T06:14:55;98267.78;;;17.90;68.87
49611;BME280;35515;48.766;9.176;2023-07-31T06:17:23;98268.22;;;18.04;67.10
49611;BME280;35515;48.766;9.176;2023-07-31T06:19:49;98261.91;;;18.03;66.24
49611;BME280;35515;48.766;9.176;2023-07-31T06:22:16;98269.88;;;18.05;67.44
49611;BME280;35515;48.766;9.176;2023-07-31T06:24:43;98262.28;;;18.17;66.03
49611;BME280;35515;48.766;9.176;2023-07-31T06:27:09;98259.69;;;18.33;65.39
49611;BME280;35515;48.766;9.176;2023-07-31T06:29:36;98260.13;;;18.19;64.76
49611;BME280;35515;48.766;9.176;2023-07-31T06:32:03;98259.56;;;18.17;65.59
49611;BME280;35515;48.766;9.176;2023-07-31T06:34:31;98263.09;;;18.18;65.86
49611;BME280;35515;48.766;9.176;2023-07-31T06:36:58;98256.38;;;18.31;65.35
49611;BME280;35515;48.766;9.176;2023-07-31T06:39:24;98262.38;;;18.28;65.05
49611;BME280;35515;48.766;9.176;2023-07-31T06:41:51;98264.00;;;18.24;65.51
49611;BME280;35515;48.766;9.176;2023-07-31T06:44:17;98267.34;;;18.31;64.29
49611;BME280;35515;48.766;9.176;2023-07-31T06:46:44;98266.22;;;18.27;65.10
49611;BME280;35515;48.766;9.176;2023-07-31T06:49:10;98269.28;;;18.30;64.60
49611;BME280;35515;48.766;9.176;2023-07-31T06:51:38;98262.72;;;18.31;64.14
49611;BME280;35515;48.766;9.176;2023-07-31T06:54:04;98266.78;;;18.29;63.93
49611;BME280;35515;48.766;9.176;2023-07-31T06:56:31;98271.31;;;18.45;63.04
49611;BME280;35515;48.766;9.176;2023-07-31T06:58:57;98270.28;;;18.57;63.45
49611;BME280;35515;48.766;9.176;2023-07-31T07:01:24;98272.38;;;18.44;64.87
49611;BME280;35515;48.766;9.176;2023-07-31T07:03:51;98271.13;;;18.57;63.74
49611;BME280;35515;48.766;9.176;2023-07-31T07:06:17;98269.16;;;18.52;64.22
49611;BME280;35515;48.766;9.176;2023-07-31T07:08:45;98274.19;;;18.61;63.63
49611;BME280;35515;48.766;9.176;2023-07-31T07:11:12;98270.28;;;18.57;64.21
49611;BME280;35515;48.766;9.176;2023-07-31T07:13:38;98264.78;;;18.57;64.88
49611;BME280;35515;48.766;9.176;2023-07-31T07:16:05;98273.38;;;18.65;64.01
49611;BME280;35515;48.766;9.176;2023-07-31T07:18:31;98261.28;;;18.61;64.47
49611;BME280;35515;48.766;9.176;2023-07-31T07:20:58;98267.09;;;18.70;64.63
49611;BME280;35515;48.766;9.176;2023-07-31T07:23:27;98264.41;;;18.80;63.00
49611;BME280;35515;48.766;9.176;2023-07-31T07:25:54;98250.44;;;18.87;62.08
49611;BME280;35515;48.766;9.176;2023-07-31T07:28:21;98252.25;;;19.03;61.70
49611;BME280;35515;48.766;9.176;2023-07-31T07:30:51;98255.78;;;18.99;62.17
49611;BME280;35515;48.766;9.176;2023-07-31T07:33:17;98244.66;;;19.26;60.62
49611;BME280;35515;48.766;9.176;2023-07-31T07:35:44;98249.78;;;19.12;61.46
49611;BME280;35515;48.766;9.176;2023-07-31T07:38:10;98267.59;;;18.99;62.30
49611;BME280;35515;48.766;9.176;2023-07-31T07:40:38;98254.38;;;18.96;62.47
49611;BME280;35515;48.766;9.176;2023-07-31T07:43:06;98251.97;;;19.05;60.76
49611;BME280;35515;48.766;9.176;2023-07-31T07:45:33;98248.69;;;19.08;60.73
49611;BME280;35515;48.766;9.176;2023-07-31T07:47:59;98247.56;;;19.04;61.73
49611;BME280;35515;48.766;9.176;2023-07-31T07:50:26;98246.25;;;19.17;60.65
49611;BME280;35515;48.766;9.176;2023-07-31T07:52:52;98252.25;;;19.03;62.57
49611;BME280;35515;48.766;9.176;2023-07-31T07:55:19;98247.00;;;18.97;62.94
49611;BME280;35515;48.766;9.176;2023-07-31T07:57:45;98243.72;;;19.00;62.75
49611;BME280;35515;48.766;9.176;2023-07-31T08:00:14;98248.91;;;19.01;61.78
49611;BME280;35515;48.766;9.176;2023-07-31T08:02:40;98241.28;;;19.14;61.70
49611;BME280;35515;48.766;9.176;2023-07-31T08:05:07;98244.91;;;19.19;60.57
49611;BME280;35515;48.766;9.176;2023-07-31T08:07:34;98230.59;;;19.17;60.86
49611;BME280;35515;48.766;9.176;2023-07-31T08:10:01;98235.78;;;19.14;61.32
49611;BME280;35515;48.766;9.176;2023-07-31T08:12:27;98220.78;;;19.32;59.76
49611;BME280;35515;48.766;9.176;2023-07-31T08:14:54;98234.56;;;19.42;58.95
49611;BME280;35515;48.766;9.176;2023-07-31T08:17:21;98230.16;;;19.41;59.87
49611;BME280;35515;48.766;9.176;2023-07-31T08:19:48;98229.66;;;19.54;59.11
49611;BME280;35515;48.766;9.176;2023-07-31T08:22:14;98225.22;;;19.38;59.39
49611;BME280;35515;48.766;9.176;2023-07-31T08:24:41;98221.88;;;19.31;59.58
49611;BME280;35515;48.766;9.176;2023-07-31T08:27:07;98223.59;;;19.47;58.65
49611;BME280;35515;48.766;9.176;2023-07-31T08:29:34;98217.81;;;19.44;58.86
49611;BME280;35515;48.766;9.176;2023-07-31T08:32:00;98222.25;;;19.65;58.44
49611;BME280;35515;48.766;9.176;2023-07-31T08:34:28;98215.09;;;19.69;58.34
49611;BME280;35515;48.766;9.176;2023-07-31T08:36:55;98209.63;;;19.69;58.00
49611;BME280;35515;48.766;9.176;2023-07-31T08:39:21;98218.94;;;19.68;58.32
49611;BME280;35515;48.766;9.176;2023-07-31T08:41:50;98218.41;;;19.66;58.66
49611;BME280;35515;48.766;9.176;2023-07-31T08:44:17;98205.47;;;19.67;58.96
49611;BME280;35515;48.766;9.176;2023-07-31T08:46:45;98185.72;;;19.70;58.19
49611;BME280;35515;48.766;9.176;2023-07-31T08:49:13;98190.72;;;19.83;59.21
49611;BME280;35515;48.766;9.176;2023-07-31T08:51:41;98188.53;;;19.96;57.42
49611;BME280;35515;48.766;9.176;2023-07-31T08:54:08;98196.22;;;19.99;57.34
49611;BME280;35515;48.766;9.176;2023-07-31T08:56:36;98198.69;;;19.90;57.55
49611;BME280;35515;48.766;9.176;2023-07-31T08:59:03;98189.63;;;19.95;58.13
49611;BME280;35515;48.766;9.176;2023-07-31T09:01:33;98186.31;;;19.98;58.65
49611;BME280;35515;48.766;9.176;2023-07-31T09:04:04;98201.44;;;20.26;55.87
49611;BME280;35515;48.766;9.176;2023-07-31T09:06:32;98193.47;;;20.04;57.36
49611;BME280;35515;48.766;9.176;2023-07-31T09:09:00;98189.06;;;20.03;57.11
49611;BME280;35515;48.766;9.176;2023-07-31T09:11:26;98174.22;;;20.09;56.94
49611;BME280;35515;48.766;9.176;2023-07-31T09:13:57;98181.38;;;20.15;57.20
49611;BME280;35515;48.766;9.176;2023-07-31T09:16:27;98186.88;;;20.00;56.84
49611;BME280;35515;48.766;9.176;2023-07-31T09:18:56;98178.06;;;20.03;58.13
49611;BME280;35515;48.766;9.176;2023-07-31T09:21:23;98191.25;;;20.47;55.74
49611;BME280;35515;48.766;9.176;2023-07-31T09:23:51;98189.03;;;20.34;56.50
49611;BME280;35515;48.766;9.176;2023-07-31T09:26:30;98189.34;;;20.22;57.30
49611;BME280;35515;48.766;9.176;2023-07-31T09:28:57;98188.50;;;20.21;57.58
49611;BME280;35515;48.766;9.176;2023-07-31T09:31:32;98181.09;;;20.17;57.63
49611;BME280;35515;48.766;9.176;2023-07-31T09:33:59;98184.66;;;20.12;58.68
49611;BME280;35515;48.766;9.176;2023-07-31T09:36:29;98181.38;;;20.10;58.23
49611;BME280;35515;48.766;9.176;2023-07-31T09:38:56;98173.13;;;20.15;57.80
49611;BME280;35515;48.766;9.176;2023-07-31T09:41:27;98174.78;;;20.06;57.91
49611;BME280;35515;48.766;9.176;2023-07-31T09:43:55;98167.06;;;20.08;58.56
49611;BME280;35515;48.766;9.176;2023-07-31T09:46:22;98164.31;;;20.08;58.57
49611;BME280;35515;48.766;9.176;2023-07-31T09:48:48;98151.66;;;20.17;58.27
49611;BME280;35515;48.766;9.176;2023-07-31T09:51:15;98158.53;;;20.20;57.77
49611;BME280;35515;48.766;9.176;2023-07-31T09:53:41;98149.19;;;20.26;56.73
49611;BME280;35515;48.766;9.176;2023-07-31T09:56:17;98133.78;;;20.30;57.69
49611;BME280;35515;48.766;9.176;2023-07-31T09:58:46;98126.34;;;20.31;57.15
49611;BME280;35515;48.766;9.176;2023-07-31T10:01:15;98131.03;;;20.35;59.26
49611;BME280;35515;48.766;9.176;2023-07-31T10:03:42;98136.22;;;20.47;57.70
49611;BME280;35515;48.766;9.176;2023-07-31T10:06:10;98137.03;;;20.43;57.85
49611;BME280;35515;48.766;9.176;2023-07-31T10:08:37;98129.59;;;20.53;56.71
49611;BME280;35515;48.766;9.176;2023-07-31T10:11:05;98110.88;;;20.55;56.02
49611;BME280;35515;48.766;9.176;2023-07-31T10:13:35;98126.25;;;20.62;55.88
49611;BME280;35515;48.766;9.176;2023-07-31T10:16:02;98120.22;;;20.60;55.65
49611;BME280;35515;48.766;9.176;2023-07-31T10:18:31;98120.22;;;20.54;56.18
49611;BME280;35515;48.766;9.176;2023-07-31T10:20:58;98119.13;;;20.55;57.03
49611;BME280;35515;48.766;9.176;2023-07-31T10:23:24;98113.63;;;20.61;55.49
49611;BME280;35515;48.766;9.176;2023-07-31T10:25:53;98109.44;;;20.68;55.06
49611;BME280;35515;48.766;9.176;2023-07-31T10:28:20;98107.28;;;20.60;55.54
49611;BME280;35515;48.766;9.176;2023-07-31T10:30:47;98109.50;;;20.58;56.63
49611;BME280;35515;48.766;9.176;2023-07-31T10:33:16;98100.13;;;20.59;57.63
49611;BME280;35515;48.766;9.176;2023-07-31T10:35:46;98101.44;;;20.87;55.93
49611;BME280;35515;48.766;9.176;2023-07-31T10:38:13;98089.91;;;20.75;56.67
49611;BME280;35515;48.766;9.176;2023-07-31T10:40:40;98088.72;;;20.97;53.98
49611;BME280;35515;48.766;9.176;2023-07-31T10:43:06;98086.00;;;20.92;54.57
49611;BME280;35515;48.766;9.176;2023-07-31T10:45:35;98091.47;;;20.97;54.19
49611;BME280;35515;48.766;9.176;2023-07-31T10:48:03;98091.22;;;20.93;54.33
49611;BME280;35515;48.766;9.176;2023-07-31T10:50:32;98091.16;;;21.03;53.40
49611;BME280;35515;48.766;9.176;2023-07-31T10:53:00;98095.94;;;20.87;54.25
49611;BME280;35515;48.766;9.176;2023-07-31T10:55:29;98098.13;;;20.85;54.79
49611;BME280;35515;48.766;9.176;2023-07-31T10:57:57;98087.91;;;20.91;55.18
49611;BME280;35515;48.766;9.176;2023-07-31T11:00:25;98087.66;;;20.93;55.61
49611;BME280;35515;48.766;9.176;2023-07-31T11:03:00;98077.72;;;20.97;54.35
49611;BME280;35515;48.766;9.176;2023-07-31T11:05:44;98073.78;;;21.08;53.87
49611;BME280;35515;48.766;9.176;2023-07-31T11:08:14;98074.31;;;21.15;55.30
49611;BME280;35515;48.766;9.176;2023-07-31T11:10:41;98077.94;;;21.00;54.94
49611;BME280;35515;48.766;9.176;2023-07-31T11:13:08;98078.25;;;20.94;55.67
49611;BME280;35515;48.766;9.176;2023-07-31T11:15:34;98073.22;;;21.11;54.23
49611;BME280;35515;48.766;9.176;2023-07-31T11:18:01;98078.25;;;20.94;54.27
49611;BME280;35515;48.766;9.176;2023-07-31T11:20:29;98073.38;;;20.80;55.24
49611;BME280;35515;48.766;9.176;2023-07-31T11:22:58;98075.03;;;20.81;55.54
49611;BME280;35515;48.766;9.176;2023-07-31T11:25:26;98077.75;;;20.86;54.93
49611;BME280;35515;48.766;9.176;2023-07-31T11:27:54;98062.28;;;20.96;54.92
49611;BME280;35515;48.766;9.176;2023-07-31T11:30:21;98063.34;;;21.05;54.18
49611;BME280;35515;48.766;9.176;2023-07-31T11:32:48;98065.84;;;20.96;55.03
49611;BME280;35515;48.766;9.176;2023-07-31T11:35:15;98081.00;;;20.94;54.68
49611;BME280;35515;48.766;9.176;2023-07-31T11:37:42;98071.16;;;20.87;55.67
49611;BME280;35515;48.766;9.176;2023-07-31T11:40:10;98074.97;;;20.92;55.48
49611;BME280;35515;48.766;9.176;2023-07-31T11:42:38;98062.75;;;21.08;54.98
49611;BME280;35515;48.766;9.176;2023-07-31T11:45:06;98069.31;;;21.17;54.70
49611;BME280;35515;48.766;9.176;2023-07-31T11:47:33;98068.72;;;21.20;53.94
49611;BME280;35515;48.766;9.176;2023-07-31T11:50:01;98053.25;;;21.30;53.86
49611;BME280;35515;48.766;9.176;2023-07-31T11:52:28;98044.97;;;21.30;54.31
49611;BME280;35515;48.766;9.176;2023-07-31T11:54:56;98040.03;;;21.32;53.93
49611;BME280;35515;48.766;9.176;2023-07-31T11:57:23;98036.13;;;21.38;54.78
49611;BME280;35515;48.766;9.176;2023-07-31T11:59:51;98038.34;;;21.36;54.57
49611;BME280;35515;48.766;9.176;2023-07-31T12:02:19;98014.41;;;21.31;55.45
49611;BME280;35515;48.766;9.176;2023-07-31T12:04:46;98019.88;;;21.36;54.77
49611;BME280;35515;48.766;9.176;2023-07-31T12:07:13;98015.72;;;21.39;54.63
49611;BME280;35515;48.766;9.176;2023-07-31T12:09:51;98016.25;;;21.41;54.84
49611;BME280;35515;48.766;9.176;2023-07-31T12:12:20;98017.16;;;21.31;55.70
49611;BME280;35515;48.766;9.176;2023-07-31T12:14:47;98011.06;;;21.34;55.54
49611;BME280;35515;48.766;9.176;2023-07-31T12:17:15;98005.28;;;21.36;55.69
49611;BME280;35515;48.766;9.176;2023-07-31T12:19:41;98010.81;;;21.31;55.64
49611;BME280;35515;48.766;9.176;2023-07-31T12:22:11;98009.75;;;21.27;56.05
49611;BME280;35515;48.766;9.176;2023-07-31T12:24:39;98010.84;;;21.26;56.09
49611;BME280;35515;48.766;9.176;2023-07-31T12:27:09;98007.28;;;21.25;56.53
49611;BME280;35515;48.766;9.176;2023-07-31T12:29:36;98006.97;;;21.32;55.22
49611;BME280;35515;48.766;9.176;2023-07-31T12:32:03;98002.00;;;21.34;55.38
49611;BME280;35515;48.766;9.176;2023-07-31T12:34:31;98003.66;;;21.30;55.37
49611;BME280;35515;48.766;9.176;2023-07-31T12:36:58;98001.53;;;21.21;56.51
49611;BME280;35515;48.766;9.176;2023-07-31T12:39:24;98000.09;;;21.29;55.31
49611;BME280;35515;48.766;9.176;2023-07-31T12:41:51;97986.91;;;21.26;54.96
49611;BME280;35515;48.766;9.176;2023-07-31T12:44:18;97988.53;;;21.27;54.08
49611;BME280;35515;48.766;9.176;2023-07-31T12:46:44;97983.91;;;21.23;53.77
49611;BME280;35515;48.766;9.176;2023-07-31T12:49:11;97988.63;;;21.17;54.59
49611;BME280;35515;48.766;9.176;2023-07-31T12:51:39;97983.34;;;21.20;54.06
49611;BME280;35515;48.766;9.176;2023-07-31T12:54:06;97980.66;;;21.15;54.51
49611;BME280;35515;48.766;9.176;2023-07-31T12:56:32;97980.88;;;21.19;54.77
49611;BME280;35515;48.766;9.176;2023-07-31T12:58:59;97967.41;;;21.17;55.12
49611;BME280;35515;48.766;9.176;2023-07-31T13:01:26;97959.72;;;21.14;55.27